Time;durP1;ratioP1;P1;durP2;ratioP2;P2;SDS_P1;SDS_P2;PMS_P1;PMS_P2;Temp;Humidity;BMP_temperature;BMP_pressure;BME280_temperature;BME280_humidity;BME280_pressure;Samples;Min_cycle;Max_cycle;Signal;HPM_P1;HPM_P2
2023/08/08 00:01:39;;;;;;;3.00;1.90;;;;;;;15.89;69.86;99136.54;102648;1262;138312;-72
2023/08/08 00:04:06;;;;;;;5.00;2.10;;;;;;;15.82;69.94;99141.64;102682;1261;108647;-71
2023/08/08 00:06:33;;;;;;;6.40;2.40;;;;;;;15.76;69.82;99145.00;102950;1261;138907;-72
2023/08/08 00:09:00;;;;;;;5.30;1.80;;;;;;;15.70;69.76;99149.95;102927;1264;112170;-72
2023/08/08 00:11:27;;;;;;;4.80;2.30;;;;;;;15.71;69.87;99154.25;102803;1263;108235;-72
2023/08/08 00:13:55;;;;;;;6.20;2.20;;;;;;;15.70;69.63;99152.95;103705;1260;138864;-71
2023/08/08 00:16:22;;;;;;;5.20;2.10;;;;;;;15.67;69.49;99162.30;103158;1262;108075;-72
2023/08/08 00:18:52;;;;;;;5.40;1.80;;;;;;;15.64;69.54;99163.58;102963;1260;138803;-72
2023/08/08 00:21:19;;;;;;;9.00;2.20;;;;;;;15.61;69.18;99167.77;103706;1262;112669;-71
2023/08/08 00:23:46;;;;;;;5.20;2.00;;;;;;;15.57;69.07;99169.92;102800;1259;108511;-71
2023/08/08 00:26:14;;;;;;;4.90;2.10;;;;;;;15.53;68.82;99175.84;103244;1261;98441;-72
2023/08/08 00:28:41;;;;;;;8.00;1.90;;;;;;;15.48;68.96;99175.66;103122;1262;108562;-71
2023/08/08 00:31:08;;;;;;;4.60;2.10;;;;;;;15.50;68.76;99180.45;102662;1262;138376;-71
2023/08/08 00:33:37;;;;;;;4.20;2.00;;;;;;;15.45;68.41;99179.56;103833;1261;111261;-72
2023/08/08 00:36:06;;;;;;;5.40;2.20;;;;;;;15.45;68.54;99184.81;103200;1261;138669;-72
2023/08/08 00:38:33;;;;;;;8.20;2.20;;;;;;;15.42;68.21;99186.20;103247;1261;98292;-72
2023/08/08 00:41:00;;;;;;;5.80;1.90;;;;;;;15.39;68.20;99187.67;102666;1261;108881;-71
2023/08/08 00:43:28;;;;;;;9.70;2.30;;;;;;;15.41;68.30;99190.83;102581;1263;138533;-72
2023/08/08 00:45:55;;;;;;;4.90;1.80;;;;;;;15.39;67.86;99192.57;103009;1266;112129;-72
2023/08/08 00:48:22;;;;;;;7.00;2.10;;;;;;;15.33;67.87;99188.46;103489;1260;138652;-71
2023/08/08 00:50:51;;;;;;;5.80;2.00;;;;;;;15.30;67.84;99193.23;103577;1261;97393;-71
2023/08/08 00:53:19;;;;;;;5.80;2.00;;;;;;;15.22;67.63;99192.48;103419;1261;109112;-71
2023/08/08 00:55:47;;;;;;;4.00;1.90;;;;;;;15.18;67.73;99200.50;103051;1261;138412;-72
2023/08/08 00:58:16;;;;;;;7.30;2.40;;;;;;;15.17;67.79;99210.89;103064;1261;112001;-71
2023/08/08 01:00:43;;;;;;;6.00;2.30;;;;;;;15.15;67.77;99212.42;103361;1259;139195;-71
2023/08/08 01:03:10;;;;;;;9.00;2.10;;;;;;;15.15;67.83;99216.98;103562;1262;97845;-71
2023/08/08 01:05:42;;;;;;;8.20;2.00;;;;;;;15.13;67.85;99221.31;102977;1260;109243;-71
2023/08/08 01:08:12;;;;;;;5.20;2.00;;;;;;;15.15;68.00;99226.08;102654;1262;138579;-71
2023/08/08 01:10:42;;;;;;;9.30;2.20;;;;;;;15.17;68.17;99220.35;103015;1261;110942;-71
2023/08/08 01:13:13;;;;;;;4.40;1.90;;;;;;;15.16;67.97;99220.94;102954;1262;138455;-71
2023/08/08 01:15:41;;;;;;;4.70;2.10;;;;;;;15.14;68.05;99223.54;102836;1262;97713;-72
2023/08/08 01:18:10;;;;;;;5.70;2.10;;;;;;;15.08;67.91;99223.35;103418;1261;138389;-71
2023/08/08 01:20:39;;;;;;;4.50;1.80;;;;;;;15.01;68.01;99225.98;102949;1261;97920;-72
2023/08/08 01:23:17;;;;;;;8.80;2.60;;;;;;;14.95;68.03;99225.69;102723;1264;111873;-72
2023/08/08 01:25:46;;;;;;;4.70;2.30;;;;;;;14.91;68.37;99228.39;102869;1262;138478;-72
2023/08/08 01:28:14;;;;;;;6.30;2.20;;;;;;;14.91;68.35;99234.50;102737;1264;97955;-72
2023/08/08 01:30:42;;;;;;;4.30;2.00;;;;;;;14.86;68.30;99235.90;102614;1262;138770;-72
2023/08/08 01:33:09;;;;;;;6.20;2.20;;;;;;;14.82;68.38;99237.70;102727;1262;97821;-72
2023/08/08 01:35:40;;;;;;;5.00;2.00;;;;;;;14.79;68.48;99240.02;102706;1264;110840;-71
2023/08/08 01:38:15;;;;;;;6.40;1.80;;;;;;;14.78;68.71;99238.83;103193;1262;138730;-72
2023/08/08 01:40:44;;;;;;;7.80;2.30;;;;;;;14.76;68.51;99246.20;103712;1261;96930;-71
2023/08/08 01:43:12;;;;;;;3.70;2.00;;;;;;;14.72;68.54;99248.17;102649;1262;138140;-71
2023/08/08 01:45:39;;;;;;;4.10;2.00;;;;;;;14.68;68.47;99248.09;103029;1260;97692;-72
2023/08/08 01:48:11;;;;;;;5.80;2.50;;;;;;;14.62;68.38;99256.17;102819;1262;138792;-71
2023/08/08 01:50:39;;;;;;;9.00;2.20;;;;;;;14.55;68.43;99257.34;103731;1259;108419;-72
2023/08/08 01:53:06;;;;;;;8.70;2.10;;;;;;;14.50;68.59;99256.25;103117;1261;97886;-72
2023/08/08 01:55:33;;;;;;;4.20;2.10;;;;;;;14.45;68.65;99260.75;103699;1265;138918;-71
2023/08/08 01:58:00;;;;;;;5.40;2.00;;;;;;;14.43;68.82;99257.73;102740;1264;97688;-72
2023/08/08 02:00:28;;;;;;;4.50;2.50;;;;;;;14.42;68.85;99267.08;102600;1264;138349;-71
2023/08/08 02:02:55;;;;;;;5.50;2.00;;;;;;;14.38;68.84;99268.52;102964;1264;107425;-70
2023/08/08 02:05:23;;;;;;;8.60;2.40;;;;;;;14.36;69.03;99271.98;103911;1262;96705;-71
2023/08/08 02:07:51;;;;;;;6.20;2.20;;;;;;;14.32;68.98;99270.30;102615;1263;138114;-71
2023/08/08 02:10:23;;;;;;;6.90;2.40;;;;;;;14.30;69.03;99268.89;102725;1262;97881;-71
2023/08/08 02:12:51;;;;;;;4.90;2.30;;;;;;;14.26;68.99;99272.42;103262;1262;138163;-71
2023/08/08 02:15:18;;;;;;;6.90;2.10;;;;;;;14.25;69.08;99273.75;104196;1260;107595;-71
2023/08/08 02:17:51;;;;;;;7.90;2.30;;;;;;;14.21;68.96;99278.38;102833;1261;97806;-71
2023/08/08 02:20:19;;;;;;;8.70;2.10;;;;;;;14.18;68.90;99288.47;102794;1259;107818;-71
2023/08/08 02:22:46;;;;;;;5.70;2.10;;;;;;;14.16;68.83;99289.15;103299;1262;97801;-71
2023/08/08 02:25:15;;;;;;;8.40;2.20;;;;;;;14.14;69.19;99291.38;102641;1262;138347;-72
2023/08/08 02:27:42;;;;;;;7.80;2.40;;;;;;;14.17;69.31;99296.27;102659;1262;109462;-72
2023/08/08 02:30:11;;;;;;;7.00;2.20;;;;;;;14.16;69.06;99297.88;102587;1262;139187;-72
2023/08/08 02:32:38;;;;;;;6.50;2.10;;;;;;;14.15;69.10;99298.12;103043;1264;107738;-71
2023/08/08 02:35:07;;;;;;;7.70;2.50;;;;;;;14.12;68.92;99303.20;102821;1263;97688;-70
2023/08/08 02:37:34;;;;;;;9.10;2.20;;;;;;;14.11;69.25;99309.70;102860;1261;138143;-70
2023/08/08 02:40:01;;;;;;;8.10;2.20;;;;;;;14.12;69.03;99308.62;102827;1262;109121;-70
2023/08/08 02:42:29;;;;;;;5.80;2.20;;;;;;;14.10;69.11;99309.80;102557;1262;138894;-71
2023/08/08 02:44:56;;;;;;;9.70;2.60;;;;;;;14.14;69.21;99309.53;102824;1262;109736;-71
2023/08/08 02:47:24;;;;;;;4.80;2.00;;;;;;;14.15;69.03;99314.89;102778;1261;97722;-71
2023/08/08 02:49:52;;;;;;;8.90;2.30;;;;;;;14.13;68.87;99316.23;103471;1260;139936;-71
2023/08/08 02:52:19;;;;;;;7.00;2.10;;;;;;;14.11;68.64;99321.10;102751;1261;110182;-71
2023/08/08 02:54:46;;;;;;;5.70;2.30;;;;;;;14.06;68.56;99321.42;103144;1259;138955;-71
2023/08/08 02:57:13;;;;;;;10.30;2.40;;;;;;;14.00;68.57;99327.18;103406;1260;108060;-71
2023/08/08 02:59:41;;;;;;;7.90;2.30;;;;;;;13.95;68.58;99327.83;102722;1262;97691;-71
2023/08/08 03:02:08;;;;;;;7.40;3.30;;;;;;;13.89;68.52;99327.83;103259;1261;137958;-72
2023/08/08 03:04:37;;;;;;;8.90;2.70;;;;;;;13.86;68.45;99337.14;102737;1260;107725;-71
2023/08/08 03:07:06;;;;;;;7.60;2.20;;;;;;;13.80;68.36;99337.66;102643;1267;138409;-71
2023/08/08 03:09:34;;;;;;;8.30;2.40;;;;;;;13.76;68.61;99340.71;103898;1262;108536;-72
2023/08/08 03:12:01;;;;;;;7.60;2.40;;;;;;;13.73;68.48;99345.95;102784;1262;138585;-71
2023/08/08 03:14:29;;;;;;;5.70;2.60;;;;;;;13.70;68.41;99350.70;102687;1262;111279;-72
2023/08/08 03:16:57;;;;;;;5.40;2.30;;;;;;;13.69;68.47;99355.12;102660;1264;108036;-72
2023/08/08 03:19:25;;;;;;;7.00;2.30;;;;;;;13.65;68.46;99354.11;102753;1260;138611;-71
2023/08/08 03:21:53;;;;;;;8.10;2.20;;;;;;;13.64;68.50;99353.27;102749;1262;108891;-70
2023/08/08 03:24:20;;;;;;;7.00;2.50;;;;;;;13.65;68.56;99357.45;103052;1264;138652;-72
2023/08/08 03:26:48;;;;;;;6.30;3.00;;;;;;;13.65;68.46;99363.73;102874;1262;112601;-71
2023/08/08 03:29:15;;;;;;;11.00;2.70;;;;;;;13.63;68.36;99365.91;102672;1262;108784;-72
2023/08/08 03:31:44;;;;;;;9.00;2.40;;;;;;;13.60;68.43;99366.59;102647;1261;138497;-71
2023/08/08 03:34:12;;;;;;;7.80;2.30;;;;;;;13.60;68.54;99368.55;102731;1267;109716;-71
2023/08/08 03:36:39;;;;;;;4.90;2.20;;;;;;;13.60;68.68;99373.26;102656;1260;138377;-71
2023/08/08 03:39:09;;;;;;;5.30;2.50;;;;;;;13.64;68.77;99366.92;102765;1259;112411;-71
2023/08/08 03:41:37;;;;;;;11.00;2.40;;;;;;;13.66;68.59;99375.75;103004;1259;107786;-71
2023/08/08 03:44:07;;;;;;;8.10;2.70;;;;;;;13.66;68.65;99378.85;103121;1261;138824;-72
2023/08/08 03:46:34;;;;;;;5.90;1.80;;;;;;;13.66;68.61;99381.16;102777;1263;108113;-71
2023/08/08 03:49:02;;;;;;;7.60;2.30;;;;;;;13.73;68.83;99385.79;102653;1264;138345;-71
2023/08/08 03:51:29;;;;;;;5.50;2.30;;;;;;;13.75;68.51;99382.71;103717;1262;112405;-71
2023/08/08 03:53:57;;;;;;;8.70;2.30;;;;;;;13.77;68.70;99393.72;102722;1261;139262;-70
2023/08/08 03:56:24;;;;;;;6.50;2.30;;;;;;;13.81;68.58;99397.19;103114;1262;96883;-72
2023/08/08 03:58:52;;;;;;;6.70;2.10;;;;;;;13.87;68.52;99397.02;103684;1264;108271;-72
2023/08/08 04:01:21;;;;;;;8.40;2.20;;;;;;;13.94;68.22;99401.85;103070;1265;138382;-72
2023/08/08 04:03:48;;;;;;;7.10;2.10;;;;;;;13.96;68.05;99406.27;103600;1260;112409;-72
2023/08/08 04:06:15;;;;;;;9.60;2.20;;;;;;;14.00;67.94;99409.70;103623;1264;138392;-72
2023/08/08 04:08:42;;;;;;;5.40;2.00;;;;;;;14.01;67.77;99413.48;102768;1264;97801;-72
2023/08/08 04:11:10;;;;;;;10.10;2.30;;;;;;;14.05;67.76;99418.86;102692;1264;109173;-72
2023/08/08 04:13:37;;;;;;;9.50;2.50;;;;;;;14.13;67.92;99420.09;102984;1266;138560;-72
2023/08/08 04:16:05;;;;;;;5.10;2.40;;;;;;;14.24;67.67;99422.75;102783;1262;112239;-72
2023/08/08 04:18:32;;;;;;;3.90;2.10;;;;;;;14.32;67.45;99424.55;102894;1262;138659;-73
2023/08/08 04:20:59;;;;;;;7.10;2.30;;;;;;;14.38;67.34;99427.15;102760;1264;97913;-72
2023/08/08 04:23:26;;;;;;;3.60;1.90;;;;;;;14.50;67.25;99429.78;102813;1261;108069;-72
2023/08/08 04:25:53;;;;;;;4.70;2.30;;;;;;;14.61;66.99;99434.73;102695;1261;138387;-73
2023/08/08 04:28:20;;;;;;;7.50;2.50;;;;;;;14.68;66.48;99439.88;102747;1264;111532;-72
2023/08/08 04:30:48;;;;;;;8.40;2.20;;;;;;;14.74;66.43;99439.67;102592;1262;138385;-72
2023/08/08 04:33:16;;;;;;;6.00;2.10;;;;;;;14.81;66.11;99446.05;102778;1262;97705;-72
2023/08/08 04:35:43;;;;;;;5.20;2.20;;;;;;;14.86;65.97;99445.19;102838;1262;110143;-72
2023/08/08 04:38:10;;;;;;;5.30;2.10;;;;;;;14.93;65.71;99444.94;102699;1264;138189;-71
2023/08/08 04:40:37;;;;;;;9.70;2.30;;;;;;;15.06;65.66;99447.78;102723;1264;113620;-72
2023/08/08 04:43:06;;;;;;;9.10;2.60;;;;;;;15.21;65.58;99450.19;102624;1267;138663;-72
2023/08/08 04:45:34;;;;;;;5.90;1.80;;;;;;;15.37;65.37;99449.11;102750;1260;98311;-72
2023/08/08 04:48:01;;;;;;;5.20;2.00;;;;;;;15.48;64.65;99449.33;102602;1264;139696;-72
2023/08/08 04:50:29;;;;;;;5.40;2.00;;;;;;;15.53;64.47;99460.04;102754;1262;97801;-72
2023/08/08 04:52:56;;;;;;;4.60;2.20;;;;;;;15.63;64.04;99459.36;102705;1262;110802;-72
2023/08/08 04:55:23;;;;;;;6.40;1.90;;;;;;;15.75;63.98;99462.14;102504;1264;138313;-72
2023/08/08 04:57:50;;;;;;;7.80;2.20;;;;;;;15.95;63.81;99464.28;102645;1261;97834;-72
2023/08/08 05:00:18;;;;;;;8.50;2.50;;;;;;;16.24;63.59;99468.32;102566;1264;138479;-70
2023/08/08 05:02:46;;;;;;;5.30;2.30;;;;;;;16.53;63.17;99471.23;103175;1259;97800;-70
2023/08/08 05:05:13;;;;;;;6.90;2.30;;;;;;;16.72;62.38;99465.91;102684;1259;111152;-71
2023/08/08 05:07:41;;;;;;;10.50;2.20;;;;;;;16.68;61.59;99470.03;102521;1265;138110;-71
2023/08/08 05:10:09;;;;;;;5.40;2.00;;;;;;;16.54;61.45;99471.66;102703;1264;97800;-71
2023/08/08 05:12:36;;;;;;;6.00;2.00;;;;;;;16.43;61.66;99473.17;103707;1260;138188;-72
2023/08/08 05:15:04;;;;;;;7.60;2.00;;;;;;;16.37;61.66;99476.36;102754;1261;97904;-71
2023/08/08 05:17:32;;;;;;;10.00;2.10;;;;;;;16.31;61.56;99481.11;103315;1262;111296;-72
2023/08/08 05:20:00;;;;;;;8.00;2.00;;;;;;;16.23;61.44;99474.31;102628;1265;137896;-72
2023/08/08 05:22:27;;;;;;;4.00;1.80;;;;;;;16.19;61.50;99476.87;102760;1262;98205;-70
2023/08/08 05:24:55;;;;;;;6.50;2.40;;;;;;;16.23;61.71;99479.41;102628;1264;137519;-72
2023/08/08 05:27:21;;;;;;;4.30;2.10;;;;;;;16.28;61.66;99485.54;102774;1264;97841;-71
2023/08/08 05:29:49;;;;;;;10.20;2.30;;;;;;;16.42;61.52;99491.77;102832;1264;112937;-74
2023/08/08 05:32:16;;;;;;;5.90;2.00;;;;;;;16.54;60.78;99492.05;102722;1264;107020;-73
2023/08/08 05:34:43;;;;;;;6.60;2.30;;;;;;;16.57;60.60;99491.08;102764;1265;98366;-72
2023/08/08 05:37:10;;;;;;;6.20;2.00;;;;;;;16.68;60.64;99494.61;102696;1263;137792;-73
2023/08/08 05:39:44;;;;;;;7.50;2.00;;;;;;;16.83;60.15;99491.10;102724;1264;97710;-71
2023/08/08 05:42:11;;;;;;;5.60;2.00;;;;;;;16.86;59.75;99496.67;102746;1265;138315;-74
2023/08/08 05:44:38;;;;;;;7.50;2.20;;;;;;;16.87;59.23;99505.75;102768;1264;107251;-72
2023/08/08 05:47:07;;;;;;;7.50;1.80;;;;;;;16.87;59.44;99506.92;102731;1262;97973;-73
2023/08/08 05:49:34;;;;;;;5.50;2.10;;;;;;;17.07;59.08;99505.59;102581;1265;137382;-73
2023/08/08 05:52:02;;;;;;;7.10;2.30;;;;;;;17.21;58.66;99513.72;102693;1265;97897;-71
2023/08/08 05:54:29;;;;;;;7.40;2.40;;;;;;;17.21;58.40;99508.42;102644;1264;137628;-71
2023/08/08 05:56:56;;;;;;;7.80;1.90;;;;;;;17.12;58.30;99511.01;102698;1264;108772;-72
2023/08/08 05:59:23;;;;;;;4.90;2.20;;;;;;;17.06;58.46;99514.96;102747;1264;97703;-71
2023/08/08 06:01:51;;;;;;;7.10;2.10;;;;;;;17.06;58.52;99519.70;102558;1262;137919;-71
2023/08/08 06:04:18;;;;;;;7.00;2.20;;;;;;;17.01;58.35;99516.51;102823;1260;97811;-70
2023/08/08 06:06:48;;;;;;;10.40;2.60;;;;;;;16.96;58.49;99519.00;102647;1259;137461;-71
2023/08/08 06:09:16;;;;;;;7.40;2.30;;;;;;;17.03;58.37;99522.16;102741;1260;108242;-72
2023/08/08 06:11:44;;;;;;;7.30;1.90;;;;;;;17.26;58.35;99523.00;102807;1261;98018;-71
2023/08/08 06:14:11;;;;;;;7.00;2.40;;;;;;;17.44;57.80;99525.73;102660;1264;137352;-71
2023/08/08 06:16:38;;;;;;;7.20;1.90;;;;;;;17.66;57.54;99533.15;102702;1261;97700;-71
2023/08/08 06:19:05;;;;;;;6.50;2.30;;;;;;;17.79;56.97;99527.77;102611;1261;137427;-71
2023/08/08 06:21:33;;;;;;;5.00;1.90;;;;;;;18.03;56.69;99528.42;102656;1265;108062;-71
2023/08/08 06:24:00;;;;;;;6.90;1.90;;;;;;;18.11;55.86;99529.98;102594;1260;138023;-71
2023/08/08 06:26:27;;;;;;;8.90;2.00;;;;;;;17.97;55.61;99535.23;102675;1264;109851;-71
2023/08/08 06:28:54;;;;;;;6.00;2.00;;;;;;;17.72;55.61;99540.75;102673;1262;97789;-71
2023/08/08 06:31:22;;;;;;;11.10;2.10;;;;;;;17.63;56.02;99538.62;102694;1266;137487;-71
2023/08/08 06:33:49;;;;;;;8.40;2.70;;;;;;;17.61;56.07;99541.94;104114;1264;109205;-71
2023/08/08 06:36:16;;;;;;;5.60;2.40;;;;;;;17.60;56.21;99544.48;102795;1261;137775;-72
2023/08/08 06:38:43;;;;;;;6.70;1.90;;;;;;;17.63;56.10;99548.52;103133;1264;107715;-71
2023/08/08 06:41:10;;;;;;;9.10;2.00;;;;;;;17.78;55.57;99546.19;103749;1260;97829;-70
2023/08/08 06:43:38;;;;;;;9.80;2.60;;;;;;;17.84;55.40;99546.45;102743;1263;138064;-71
2023/08/08 06:46:05;;;;;;;5.80;1.90;;;;;;;17.82;55.32;99551.13;102762;1260;108617;-70
2023/08/08 06:48:33;;;;;;;4.50;1.90;;;;;;;17.73;55.45;99550.17;102793;1261;137933;-71
2023/08/08 06:51:00;;;;;;;10.50;2.40;;;;;;;17.98;55.03;99559.14;103636;1264;109243;-71
2023/08/08 06:53:28;;;;;;;6.20;2.20;;;;;;;18.42;54.36;99551.93;103296;1265;98475;-71
2023/08/08 06:55:55;;;;;;;5.10;1.80;;;;;;;18.87;53.76;99543.91;103158;1261;139495;-72
2023/08/08 06:58:22;;;;;;;9.20;2.00;;;;;;;18.99;52.95;99554.81;103776;1264;105304;-71
2023/08/08 07:00:51;;;;;;;7.90;2.30;;;;;;;18.98;52.31;99557.00;102518;1265;137878;-71
2023/08/08 07:03:18;;;;;;;11.70;2.20;;;;;;;18.80;52.47;99548.32;102707;1264;107660;-71
2023/08/08 07:05:47;;;;;;;4.60;1.70;;;;;;;18.91;52.44;99551.52;102580;1266;97718;-71
2023/08/08 07:08:15;;;;;;;8.80;1.90;;;;;;;19.19;51.27;99552.30;102710;1264;113365;-71
2023/08/08 07:10:42;;;;;;;8.30;2.20;;;;;;;19.47;51.94;99548.57;102913;1264;110120;-71
2023/08/08 07:13:09;;;;;;;5.10;1.90;;;;;;;19.77;51.14;99548.95;102663;1261;138278;-71
2023/08/08 07:15:37;;;;;;;9.50;1.90;;;;;;;20.05;50.24;99544.34;102689;1265;108715;-71
2023/08/08 07:18:06;;;;;;;4.70;2.20;;;;;;;20.26;49.92;99551.06;102591;1265;137827;-71
2023/08/08 07:20:33;;;;;;;9.10;2.60;;;;;;;20.38;49.23;99541.96;103001;1266;111406;-71
2023/08/08 07:23:03;;;;;;;4.70;2.10;;;;;;;20.47;49.20;99541.78;102750;1261;108264;-70
2023/08/08 07:25:32;;;;;;;7.80;1.90;;;;;;;20.62;48.88;99538.17;102707;1264;138355;-71
2023/08/08 07:27:59;;;;;;;7.50;2.00;;;;;;;20.83;48.76;99546.83;102738;1265;108609;-71
2023/08/08 07:30:26;;;;;;;8.00;2.30;;;;;;;21.10;48.62;99550.11;102706;1272;137944;-70
2023/08/08 07:32:54;;;;;;;4.20;1.90;;;;;;;21.40;47.92;99556.40;102801;1266;111853;-71
2023/08/08 07:35:21;;;;;;;4.80;2.00;;;;;;;21.39;46.67;99552.23;102801;1264;109030;-70
2023/08/08 07:37:48;;;;;;;6.50;2.00;;;;;;;21.02;46.32;99557.21;102654;1264;137693;-70
2023/08/08 07:40:20;;;;;;;5.70;2.00;;;;;;;20.77;47.02;99547.68;102810;1263;108706;-71
2023/08/08 07:42:48;;;;;;;6.00;2.40;;;;;;;20.57;46.88;99551.67;102814;1265;137708;-71
2023/08/08 07:45:16;;;;;;;6.00;2.30;;;;;;;20.43;47.49;99551.61;102806;1264;113176;-71
2023/08/08 07:47:43;;;;;;;8.70;2.30;;;;;;;20.46;47.57;99553.64;103537;1264;109019;-71
2023/08/08 07:50:11;;;;;;;3.50;1.90;;;;;;;20.57;47.45;99565.66;102545;1262;138336;-72
2023/08/08 07:52:40;;;;;;;10.20;2.20;;;;;;;20.66;46.98;99562.02;102784;1261;108311;-71
2023/08/08 07:55:08;;;;;;;7.40;1.80;;;;;;;20.71;46.33;99561.64;102636;1264;137798;-71
2023/08/08 07:57:36;;;;;;;5.10;1.90;;;;;;;20.70;46.22;99556.94;102704;1265;110765;-71
2023/08/08 08:00:09;;;;;;;7.30;1.90;;;;;;;20.55;46.67;99551.54;102593;1264;137824;-71
2023/08/08 08:02:37;;;;;;;9.40;2.20;;;;;;;20.39;46.99;99556.51;102909;1264;98181;-71
2023/08/08 08:05:07;;;;;;;6.10;2.20;;;;;;;20.24;46.91;99563.96;102693;1261;107393;-71
2023/08/08 08:07:38;;;;;;;4.40;1.90;;;;;;;20.23;46.56;99568.99;102629;1261;137863;-71
2023/08/08 08:10:08;;;;;;;4.70;1.90;;;;;;;20.48;45.92;99556.89;102784;1261;112297;-71
2023/08/08 08:12:36;;;;;;;6.10;1.90;;;;;;;21.00;46.10;99562.14;103105;1260;137978;-71
2023/08/08 08:15:04;;;;;;;6.90;1.90;;;;;;;21.54;45.49;99565.92;102790;1264;98218;-71
2023/08/08 08:17:31;;;;;;;5.30;1.90;;;;;;;22.26;43.90;99560.47;103751;1260;108003;-71
2023/08/08 08:19:58;;;;;;;9.00;1.80;;;;;;;22.91;43.32;99550.31;102685;1261;137626;-71
2023/08/08 08:22:26;;;;;;;6.30;1.90;;;;;;;23.97;42.49;99552.55;102826;1264;112338;-71
2023/08/08 08:24:53;;;;;;;6.30;1.60;;;;;;;25.25;41.31;99545.58;102668;1264;137818;-71
2023/08/08 08:27:20;;;;;;;5.00;1.70;;;;;;;26.16;39.81;99541.73;102742;1260;97707;-73
2023/08/08 08:29:47;;;;;;;6.00;2.00;;;;;;;26.37;37.74;99551.84;102668;1265;108395;-72
2023/08/08 08:32:15;;;;;;;11.80;2.00;;;;;;;26.09;37.33;99555.64;102608;1264;137642;-72
2023/08/08 08:34:44;;;;;;;6.50;2.00;;;;;;;25.64;37.17;99555.20;102728;1261;111362;-71
2023/08/08 08:37:11;;;;;;;3.80;1.70;;;;;;;25.54;37.49;99550.82;102542;1264;137765;-71
2023/08/08 08:39:38;;;;;;;4.20;1.60;;;;;;;25.78;37.15;99545.67;102505;1261;320687;-72
2023/08/08 08:42:07;;;;;;;7.50;1.80;;;;;;;26.22;37.55;99541.80;102640;1260;138651;-72
2023/08/08 08:44:35;;;;;;;6.60;1.60;;;;;;;26.75;36.63;99549.95;102744;1260;97699;-71
2023/08/08 08:47:10;;;;;;;5.50;1.80;;;;;;;26.68;35.76;99541.30;102695;1264;111474;-72
2023/08/08 08:49:39;;;;;;;4.60;1.50;;;;;;;26.55;35.30;99547.00;102616;1264;137657;-71
2023/08/08 08:52:06;;;;;;;5.90;2.00;;;;;;;26.43;35.03;99544.56;102729;1261;97830;-72
2023/08/08 08:54:35;;;;;;;8.30;1.80;;;;;;;26.28;35.22;99542.23;102597;1264;137739;-72
2023/08/08 08:57:02;;;;;;;7.20;2.00;;;;;;;26.31;35.43;99541.66;102666;1261;97823;-72
2023/08/08 08:59:29;;;;;;;6.40;1.60;;;;;;;26.59;35.29;99551.30;102727;1260;111604;-71
2023/08/08 09:01:57;;;;;;;6.60;1.60;;;;;;;27.07;35.27;99546.58;102574;1267;137801;-72
2023/08/08 09:04:25;;;;;;;5.00;1.80;;;;;;;27.23;33.94;99553.32;102731;1263;97998;-71
2023/08/08 09:06:53;;;;;;;4.90;1.60;;;;;;;26.85;33.42;99543.64;102658;1264;138728;-72
2023/08/08 09:09:22;;;;;;;8.20;1.60;;;;;;;25.89;33.73;99546.15;102733;1263;97861;-71
2023/08/08 09:11:51;;;;;;;4.60;1.80;;;;;;;25.05;34.97;99558.56;102715;1264;110807;-73
2023/08/08 09:14:23;;;;;;;7.20;1.70;;;;;;;24.45;35.47;99555.08;102672;1260;137513;-73
2023/08/08 09:16:52;;;;;;;6.50;2.00;;;;;;;23.90;36.22;99571.73;102810;1261;98390;-73
2023/08/08 09:19:20;;;;;;;6.80;1.60;;;;;;;23.87;36.94;99566.11;102600;1263;138940;-71
2023/08/08 09:21:48;;;;;;;6.80;1.70;;;;;;;24.54;36.92;99561.61;102733;1267;97719;-73
2023/08/08 09:24:15;;;;;;;3.40;1.20;;;;;;;25.05;35.68;99571.84;102690;1264;137850;-73
2023/08/08 09:26:44;;;;;;;5.40;1.70;;;;;;;25.24;34.00;99563.34;102708;1264;108684;-72
2023/08/08 09:29:14;;;;;;;4.90;1.40;;;;;;;24.89;34.34;99554.46;102816;1260;97802;-73
2023/08/08 09:31:41;;;;;;;5.60;1.70;;;;;;;24.50;35.36;99552.89;103243;1260;137572;-72
2023/08/08 09:34:08;;;;;;;6.00;1.60;;;;;;;24.22;35.72;99574.59;102744;1260;97798;-73
2023/08/08 09:36:36;;;;;;;4.50;1.30;;;;;;;23.91;35.59;99574.27;103426;1264;137883;-72
2023/08/08 09:39:05;;;;;;;6.10;1.40;;;;;;;23.40;35.57;99574.42;102703;1264;106707;-72
2023/08/08 09:41:32;;;;;;;3.60;1.30;;;;;;;22.97;35.74;99584.05;103090;1260;96575;-72
2023/08/08 09:44:01;;;;;;;2.70;1.30;;;;;;;22.43;36.14;99586.36;104014;1260;137674;-72
2023/08/08 09:46:33;;;;;;;8.10;1.60;;;;;;;21.95;36.81;99581.75;103234;1261;97837;-73
2023/08/08 09:49:02;;;;;;;7.00;1.80;;;;;;;21.67;37.59;99585.66;104022;1259;138256;-72
2023/08/08 09:51:29;;;;;;;2.40;1.30;;;;;;;21.35;37.69;99587.59;103030;1261;108039;-73
2023/08/08 09:53:57;;;;;;;6.40;1.70;;;;;;;21.02;38.33;99585.83;102744;1260;97724;-73
2023/08/08 09:56:26;;;;;;;4.50;1.40;;;;;;;20.78;38.86;99595.95;102699;1260;107327;-71
2023/08/08 09:58:54;;;;;;;7.30;1.90;;;;;;;20.77;39.22;99587.39;102730;1261;97826;-73
2023/08/08 10:01:22;;;;;;;8.30;1.60;;;;;;;20.69;39.26;99586.02;102655;1259;137600;-73
2023/08/08 10:03:52;;;;;;;5.40;1.60;;;;;;;20.51;39.55;99593.55;102687;1261;109755;-73
2023/08/08 10:06:19;;;;;;;8.40;1.50;;;;;;;20.98;39.93;99580.52;102807;1261;138266;-73
2023/08/08 10:08:47;;;;;;;6.20;1.60;;;;;;;21.88;39.49;99578.42;102759;1260;108484;-73
2023/08/08 10:11:15;;;;;;;8.20;1.50;;;;;;;22.76;37.95;99579.41;102696;1260;97873;-72
2023/08/08 10:13:50;;;;;;;3.60;1.60;;;;;;;23.47;36.98;99572.33;102601;1263;137424;-72
2023/08/08 10:16:18;;;;;;;6.30;1.50;;;;;;;23.84;36.19;99571.73;102665;1264;108181;-72
2023/08/08 10:18:45;;;;;;;3.70;1.40;;;;;;;23.94;35.13;99576.14;102710;1260;137659;-72
2023/08/08 10:21:14;;;;;;;4.70;1.50;;;;;;;23.61;35.47;99580.08;102789;1263;108407;-72
2023/08/08 10:23:41;;;;;;;5.70;1.50;;;;;;;23.39;35.64;99572.95;102828;1260;97691;-72
2023/08/08 10:26:20;;;;;;;5.40;1.50;;;;;;;23.29;35.63;99577.77;102653;1260;137514;-72
2023/08/08 10:28:58;;;;;;;4.30;1.20;;;;;;;23.29;35.47;99582.27;102826;1260;108370;-71
2023/08/08 10:31:26;;;;;;;8.80;1.80;;;;;;;23.17;35.00;99578.55;102636;1260;137626;-73
2023/08/08 10:34:04;;;;;;;5.70;1.40;;;;;;;22.94;35.31;99574.60;102705;1261;108854;-72
2023/08/08 10:36:45;;;;;;;3.80;1.70;;;;;;;22.82;35.25;99574.06;102626;1263;141206;-72
2023/08/08 10:39:18;;;;;;;3.60;1.40;;;;;;;23.18;35.64;99562.51;102728;1264;110406;-71
2023/08/08 10:41:49;;;;;;;3.50;1.20;;;;;;;23.61;34.11;99581.83;102711;1263;106870;-72
2023/08/08 10:44:24;;;;;;;2.50;1.40;;;;;;;23.46;33.42;99584.86;103137;1263;137829;-72
2023/08/08 10:46:53;;;;;;;2.30;1.30;;;;;;;23.11;33.82;99579.88;102657;1261;107082;-72
2023/08/08 10:49:23;;;;;;;3.10;1.20;;;;;;;22.90;34.21;99587.52;102627;1261;137938;-72
2023/08/08 10:51:51;;;;;;;5.20;1.50;;;;;;;22.97;34.80;99578.40;102672;1267;111776;-71
2023/08/08 10:54:20;;;;;;;4.80;1.30;;;;;;;23.27;34.51;99580.14;102542;1263;138323;-72
2023/08/08 10:56:53;;;;;;;5.20;1.20;;;;;;;23.31;34.10;99594.98;102755;1264;97782;-72
2023/08/08 10:59:23;;;;;;;4.70;1.30;;;;;;;23.22;34.60;99582.19;102676;1263;108532;-72
2023/08/08 11:01:52;;;;;;;3.70;2.00;;;;;;;23.33;34.21;99587.17;102595;1261;137757;-73
2023/08/08 11:04:21;;;;;;;4.50;1.20;;;;;;;23.26;32.81;99583.42;102772;1264;110665;-72
2023/08/08 11:06:49;;;;;;;2.60;1.30;;;;;;;23.25;33.84;99582.25;102582;1267;137654;-71
2023/08/08 11:09:17;;;;;;;2.50;1.20;;;;;;;23.30;34.16;99584.08;102646;1260;97863;-72
2023/08/08 11:11:46;;;;;;;5.20;1.30;;;;;;;23.12;34.12;99586.66;102694;1262;107242;-73
2023/08/08 11:14:17;;;;;;;2.60;1.10;;;;;;;22.97;34.33;99590.60;102644;1262;137633;-72
2023/08/08 11:16:45;;;;;;;2.40;1.20;;;;;;;23.09;34.52;99584.88;102564;1263;111540;-73
2023/08/08 11:19:13;;;;;;;3.90;1.10;;;;;;;23.21;33.98;99593.64;103134;1266;137617;-72
2023/08/08 11:21:42;;;;;;;4.50;1.30;;;;;;;23.32;33.69;99594.04;102701;1264;97670;-73
2023/08/08 11:24:11;;;;;;;5.30;1.50;;;;;;;23.23;33.86;99596.13;102526;1267;137782;-72